Time;durP1;ratioP1;P1;durP2;ratioP2;P2;SDS_P1;SDS_P2;PMS_P1;PMS_P2;Temp;Humidity;BMP_temperature;BMP_pressure;BME280_temperature;BME280_humidity;BME280_pressure;Samples;Min_cycle;Max_cycle;Signal;HPM_P1;HPM_P2
2021/07/21 00:01:33;;;;;;;7.13;4.90;;;15.40;99.90;;;;;;5023153;28;20099;-73
2021/07/21 00:04:02;;;;;;;6.65;5.13;;;15.40;99.90;;;;;;5025084;28;20025;-72
2021/07/21 00:06:27;;;;;;;8.18;5.20;;;15.40;99.90;;;;;;5023895;28;20497;-72
2021/07/21 00:08:53;;;;;;;7.65;5.35;;;15.30;99.90;;;;;;5023828;28;20087;-72
2021/07/21 00:14:15;;;;;;;7.60;4.90;;;15.30;99.90;;;;;;5022083;28;20037;-72
2021/07/21 00:16:44;;;;;;;7.03;5.05;;;15.30;99.90;;;;;;5022246;28;20033;-72
2021/07/21 00:20:05;;;;;;;12.02;5.78;;;15.20;99.90;;;;;;5021885;28;20024;-73
2021/07/21 00:22:01;;;;;;;9.00;5.00;;;15.20;99.90;;;;;;5025662;28;20066;-72
2021/07/21 00:24:26;;;;;;;14.48;6.03;;;15.20;99.90;;;;;;5022842;28;20072;-72
2021/07/21 00:26:52;;;;;;;8.77;5.57;;;15.20;99.90;;;;;;5018202;28;20025;-72
2021/07/21 00:29:17;;;;;;;9.15;5.70;;;15.20;99.90;;;;;;5020826;28;20397;-72
2021/07/21 00:31:43;;;;;;;10.55;5.13;;;15.20;99.90;;;;;;5025544;28;20018;-72
2021/07/21 00:34:10;;;;;;;10.02;5.47;;;15.20;99.90;;;;;;5026020;28;20108;-73
2021/07/21 00:36:35;;;;;;;10.23;5.32;;;15.20;99.90;;;;;;5027544;28;20029;-72
2021/07/21 00:39:03;;;;;;;10.15;6.03;;;15.10;99.90;;;;;;5022500;28;20537;-72
2021/07/21 00:41:29;;;;;;;10.35;5.68;;;15.10;99.90;;;;;;5016893;28;20493;-73
2021/07/21 00:43:54;;;;;;;10.15;6.22;;;15.10;99.90;;;;;;5025361;28;20048;-72
2021/07/21 00:46:20;;;;;;;9.38;5.72;;;15.10;99.90;;;;;;5025051;28;20029;-72
2021/07/21 00:48:45;;;;;;;7.57;5.25;;;15.00;99.90;;;;;;5018532;28;20025;-72
2021/07/21 00:51:11;;;;;;;11.20;5.57;;;15.00;99.90;;;;;;5024654;28;20075;-72
2021/07/21 00:53:37;;;;;;;8.38;5.38;;;15.00;99.90;;;;;;5019147;28;20030;-72
2021/07/21 00:56:02;;;;;;;6.63;5.18;;;15.00;99.90;;;;;;5027007;28;20033;-72
2021/07/21 00:58:28;;;;;;;10.35;5.55;;;15.00;99.90;;;;;;5026187;28;20456;-73
2021/07/21 01:00:55;;;;;;;8.20;5.63;;;14.90;99.90;;;;;;5027975;28;20032;-72
2021/07/21 01:03:21;;;;;;;9.88;5.65;;;14.90;99.90;;;;;;5026121;28;20022;-73
2021/07/21 01:05:46;;;;;;;8.18;5.35;;;14.90;99.90;;;;;;5026204;28;20274;-72
2021/07/21 01:08:12;;;;;;;7.72;4.90;;;14.90;99.90;;;;;;5024186;28;20029;-72
2021/07/21 01:10:52;;;;;;;10.10;5.30;;;14.80;99.90;;;;;;5028200;28;20022;-72
2021/07/21 01:13:25;;;;;;;10.77;5.82;;;14.80;99.90;;;;;;5023579;28;20029;-73
2021/07/21 01:16:04;;;;;;;9.25;5.78;;;14.80;99.90;;;;;;5022113;28;20057;-72
2021/07/21 01:18:46;;;;;;;11.52;6.15;;;14.80;99.90;;;;;;5026391;28;20084;-72
2021/07/21 01:21:26;;;;;;;16.67;5.80;;;14.80;99.90;;;;;;5026972;28;20114;-72
2021/07/21 01:24:19;;;;;;;11.38;6.25;;;14.90;99.90;;;;;;5021846;28;20030;-72
2021/07/21 01:27:01;;;;;;;16.98;6.55;;;14.90;99.90;;;;;;5026238;28;20499;-72
2021/07/21 01:29:28;;;;;;;10.85;5.85;;;14.90;99.90;;;;;;5020496;28;20420;-73
2021/07/21 01:31:57;;;;;;;10.63;6.40;;;14.80;99.90;;;;;;5022342;28;20022;-72
2021/07/21 01:34:27;;;;;;;10.25;6.13;;;14.80;99.90;;;;;;5027773;28;20037;-73
2021/07/21 01:36:54;;;;;;;14.77;6.40;;;14.80;99.90;;;;;;5024544;28;20492;-72
2021/07/21 01:39:25;;;;;;;12.85;6.60;;;14.70;99.90;;;;;;5022251;28;20107;-73
2021/07/21 01:41:55;;;;;;;12.38;6.13;;;14.70;99.90;;;;;;5015360;28;20037;-72
2021/07/21 01:44:26;;;;;;;12.85;6.95;;;14.70;99.90;;;;;;5027024;28;20450;-72
2021/07/21 01:46:55;;;;;;;11.23;6.10;;;14.70;99.90;;;;;;5017256;28;20026;-73
2021/07/21 01:49:23;;;;;;;14.43;6.30;;;14.60;99.90;;;;;;5024100;28;20501;-72
2021/07/21 01:51:50;;;;;;;12.10;7.32;;;14.60;99.90;;;;;;5026872;28;20664;-73
2021/07/21 01:54:18;;;;;;;11.45;6.80;;;14.60;99.90;;;;;;5025089;28;20033;-72
2021/07/21 01:56:45;;;;;;;8.73;6.22;;;14.50;99.90;;;;;;5022466;28;20025;-72
2021/07/21 01:59:11;;;;;;;10.48;6.32;;;14.50;99.90;;;;;;5019560;28;20091;-72
2021/07/21 02:01:38;;;;;;;9.02;5.80;;;14.50;99.90;;;;;;5021670;28;20053;-73
2021/07/21 02:04:05;;;;;;;12.25;6.32;;;14.50;99.90;;;;;;5025228;28;20048;-72
2021/07/21 02:06:32;;;;;;;12.40;5.97;;;14.40;99.90;;;;;;5012619;28;20069;-72
2021/07/21 02:08:59;;;;;;;9.18;5.55;;;14.40;99.90;;;;;;5024958;28;20057;-72
2021/07/21 02:11:26;;;;;;;12.23;6.30;;;14.40;99.90;;;;;;5025569;28;20029;-72
2021/07/21 02:13:55;;;;;;;11.38;6.35;;;14.50;99.90;;;;;;5015779;28;20034;-72
2021/07/21 02:16:21;;;;;;;11.68;6.03;;;14.50;99.90;;;;;;5023510;28;20030;-73
2021/07/21 02:18:48;;;;;;;9.88;6.22;;;14.50;99.90;;;;;;5018659;28;20125;-72
2021/07/21 02:21:15;;;;;;;9.23;5.95;;;14.60;99.90;;;;;;5023906;28;20026;-72
2021/07/21 02:23:41;;;;;;;11.82;6.25;;;14.70;99.90;;;;;;5018703;28;20040;-72
2021/07/21 02:26:07;;;;;;;12.98;6.68;;;14.80;99.90;;;;;;5022831;28;20025;-72
2021/07/21 02:28:34;;;;;;;11.57;6.68;;;14.80;99.90;;;;;;5020149;28;20061;-72
2021/07/21 02:31:04;;;;;;;10.90;6.13;;;14.90;99.90;;;;;;5025294;28;20026;-72
2021/07/21 02:33:43;;;;;;;8.83;5.83;;;14.90;99.90;;;;;;5029312;28;20033;-73
2021/07/21 02:36:08;;;;;;;10.32;5.97;;;15.00;99.90;;;;;;5024503;28;20025;-72
2021/07/21 02:38:35;;;;;;;11.70;6.70;;;15.10;99.90;;;;;;5028562;28;20028;-73
2021/07/21 02:41:00;;;;;;;11.80;6.72;;;15.10;99.90;;;;;;5030994;28;20109;-72
2021/07/21 02:43:26;;;;;;;10.73;6.45;;;15.20;99.90;;;;;;5028723;28;20108;-72
2021/07/21 02:45:52;;;;;;;10.57;6.55;;;15.20;99.90;;;;;;5027902;28;20488;-72
2021/07/21 02:48:17;;;;;;;14.65;7.10;;;15.20;99.90;;;;;;5026807;28;20688;-72
2021/07/21 02:50:47;;;;;;;10.73;6.50;;;15.30;99.90;;;;;;5025903;28;20503;-72
2021/07/21 02:53:20;;;;;;;10.15;6.22;;;15.40;99.90;;;;;;5027205;28;20108;-72
2021/07/21 02:55:52;;;;;;;12.27;6.50;;;15.40;99.90;;;;;;5031005;28;20048;-72
2021/07/21 02:58:36;;;;;;;13.40;6.40;;;15.40;99.90;;;;;;5029716;28;20365;-72
2021/07/21 03:01:03;;;;;;;11.75;7.03;;;15.50;99.90;;;;;;5027999;28;20068;-72
2021/07/21 03:03:31;;;;;;;11.45;6.90;;;15.50;99.90;;;;;;5021966;28;20037;-72
2021/07/21 03:06:03;;;;;;;11.73;6.20;;;15.50;99.90;;;;;;5022489;28;20053;-73
2021/07/21 03:08:29;;;;;;;10.20;6.05;;;15.60;99.90;;;;;;5023338;28;20099;-73
2021/07/21 03:10:57;;;;;;;12.85;6.15;;;15.60;99.90;;;;;;5028368;28;20025;-72
2021/07/21 03:13:28;;;;;;;10.88;6.55;;;15.60;99.90;;;;;;5025940;28;20096;-72
2021/07/21 03:15:54;;;;;;;12.18;6.30;;;15.70;99.90;;;;;;5022921;28;20025;-72
2021/07/21 03:18:23;;;;;;;11.63;6.65;;;15.70;99.90;;;;;;5026021;28;20113;-72
2021/07/21 03:20:49;;;;;;;13.02;6.30;;;15.70;99.90;;;;;;5029543;28;20400;-73
2021/07/21 03:23:16;;;;;;;12.10;6.47;;;15.70;99.90;;;;;;5026073;28;20124;-72
2021/07/21 03:25:42;;;;;;;9.30;5.80;;;15.70;99.90;;;;;;5028234;28;20045;-72
2021/07/21 03:28:08;;;;;;;13.55;6.47;;;15.70;99.90;;;;;;5026998;28;20028;-72
2021/07/21 03:30:35;;;;;;;11.95;6.05;;;15.70;99.90;;;;;;5025815;28;20235;-72
2021/07/21 03:33:02;;;;;;;8.85;6.10;;;15.80;99.90;;;;;;5025162;28;20033;-72
2021/07/21 03:35:31;;;;;;;10.90;6.18;;;15.80;99.90;;;;;;5025754;28;20037;-72
2021/07/21 03:37:58;;;;;;;11.70;6.45;;;15.80;99.90;;;;;;5023704;28;20076;-73
2021/07/21 03:40:26;;;;;;;11.63;6.15;;;15.90;99.90;;;;;;5023631;28;20034;-72
2021/07/21 03:42:54;;;;;;;14.13;6.28;;;15.80;99.90;;;;;;5020712;28;20480;-72
2021/07/21 03:45:22;;;;;;;12.93;6.47;;;15.90;99.90;;;;;;5027229;28;20476;-73
2021/07/21 03:47:48;;;;;;;11.30;6.53;;;15.90;99.90;;;;;;5024744;28;20013;-73
2021/07/21 03:50:18;;;;;;;10.02;5.65;;;15.90;99.90;;;;;;5024525;28;20051;-72
2021/07/21 03:52:45;;;;;;;9.05;5.72;;;16.00;99.90;;;;;;5028023;28;20083;-73
2021/07/21 03:55:14;;;;;;;8.75;5.95;;;15.90;99.90;;;;;;5025697;28;20034;-73
2021/07/21 03:57:42;;;;;;;10.65;6.57;;;16.00;99.90;;;;;;5025928;28;20057;-73
2021/07/21 04:00:11;;;;;;;12.40;7.07;;;16.00;99.90;;;;;;5031023;28;20026;-73
2021/07/21 04:02:37;;;;;;;10.85;6.20;;;16.00;99.90;;;;;;5023884;28;20038;-73
2021/07/21 04:05:05;;;;;;;11.65;6.22;;;16.10;99.90;;;;;;5018489;28;20101;-73
2021/07/21 04:07:35;;;;;;;12.07;6.75;;;16.10;99.90;;;;;;5027743;28;20411;-73
2021/07/21 04:10:03;;;;;;;11.23;6.45;;;16.20;99.90;;;;;;5030023;28;20532;-73
2021/07/21 04:12:30;;;;;;;10.55;6.22;;;16.20;99.90;;;;;;5024009;28;20591;-73
2021/07/21 04:14:57;;;;;;;12.75;7.07;;;16.20;99.90;;;;;;5027357;28;20033;-72
2021/07/21 04:17:23;;;;;;;12.60;6.82;;;16.20;99.90;;;;;;5023577;28;20107;-72
2021/07/21 04:19:49;;;;;;;14.30;7.07;;;16.20;99.90;;;;;;5021192;28;20037;-73
2021/07/21 04:22:15;;;;;;;11.55;6.50;;;16.30;99.90;;;;;;5022156;28;20254;-73
2021/07/21 04:24:45;;;;;;;11.82;6.72;;;16.30;99.90;;;;;;5028752;28;20491;-72
2021/07/21 04:27:13;;;;;;;13.20;6.75;;;16.30;99.90;;;;;;5025165;28;20022;-72
2021/07/21 04:29:41;;;;;;;11.73;6.25;;;16.40;99.90;;;;;;5027050;28;20491;-72
2021/07/21 04:32:06;;;;;;;10.48;6.15;;;16.40;99.90;;;;;;5024127;28;20029;-73
2021/07/21 04:34:32;;;;;;;10.43;6.68;;;16.40;99.90;;;;;;5028812;28;20041;-72
2021/07/21 04:36:59;;;;;;;10.52;6.15;;;16.40;99.90;;;;;;5024110;28;20029;-72
2021/07/21 04:39:25;;;;;;;12.25;6.68;;;16.50;99.90;;;;;;5027578;28;20056;-72
2021/07/21 04:41:51;;;;;;;11.48;6.50;;;16.50;99.90;;;;;;5023726;28;20076;-73
2021/07/21 04:44:18;;;;;;;11.48;6.32;;;16.50;99.90;;;;;;5026271;28;20655;-72
2021/07/21 04:46:44;;;;;;;11.73;6.78;;;16.60;99.90;;;;;;5013828;28;20036;-72
2021/07/21 04:49:11;;;;;;;11.55;6.20;;;16.60;99.90;;;;;;5025938;28;20034;-73
2021/07/21 04:51:38;;;;;;;10.20;6.35;;;16.60;99.90;;;;;;5023359;28;20665;-72
2021/07/21 04:54:05;;;;;;;11.85;6.28;;;16.70;99.90;;;;;;5022478;28;20048;-73
2021/07/21 04:56:32;;;;;;;9.20;5.53;;;16.70;99.90;;;;;;5023154;28;20034;-72
2021/07/21 04:58:57;;;;;;;10.80;6.28;;;16.80;99.90;;;;;;5028390;28;20208;-73
2021/07/21 05:01:23;;;;;;;10.05;5.70;;;16.80;99.90;;;;;;5020197;28;20738;-72
2021/07/21 05:03:48;;;;;;;9.75;6.10;;;16.80;99.90;;;;;;5028368;28;20091;-72
2021/07/21 05:06:14;;;;;;;11.63;6.15;;;16.80;99.90;;;;;;5027427;28;20041;-73
2021/07/21 05:08:40;;;;;;;12.05;5.88;;;16.90;99.90;;;;;;5026353;28;20026;-73
2021/07/21 05:11:05;;;;;;;11.32;6.25;;;16.90;99.90;;;;;;5024805;28;20025;-73
2021/07/21 05:13:32;;;;;;;12.05;6.80;;;16.90;99.90;;;;;;5025540;28;20112;-73
2021/07/21 05:15:58;;;;;;;9.68;5.80;;;17.00;99.90;;;;;;5014441;28;20037;-73
2021/07/21 05:18:23;;;;;;;10.55;6.43;;;17.00;99.90;;;;;;5017517;28;20046;-72
2021/07/21 05:20:49;;;;;;;10.73;5.53;;;17.10;99.90;;;;;;5026216;28;20121;-73
2021/07/21 05:23:14;;;;;;;10.52;5.68;;;17.10;99.90;;;;;;5021596;28;20046;-73
2021/07/21 05:25:40;;;;;;;11.55;6.47;;;17.10;99.90;;;;;;5026992;28;20542;-72
2021/07/21 05:28:07;;;;;;;10.05;5.95;;;17.20;99.90;;;;;;5024316;28;20097;-73
2021/07/21 05:30:33;;;;;;;9.73;5.60;;;17.30;99.90;;;;;;5023732;28;20509;-72
2021/07/21 05:32:58;;;;;;;10.80;6.07;;;17.30;99.90;;;;;;5020271;28;20033;-73
2021/07/21 05:35:24;;;;;;;14.70;5.90;;;17.40;99.90;;;;;;5022928;28;20040;-72
2021/07/21 05:37:49;;;;;;;9.75;6.03;;;17.40;99.90;;;;;;5023882;28;20113;-72
2021/07/21 05:40:15;;;;;;;9.65;5.95;;;17.40;99.90;;;;;;5023387;28;20033;-73
2021/07/21 05:42:40;;;;;;;11.00;6.18;;;17.40;99.90;;;;;;5027353;28;20025;-73
2021/07/21 05:45:06;;;;;;;10.25;5.95;;;17.40;99.90;;;;;;5023137;28;20120;-73
2021/07/21 05:47:31;;;;;;;9.75;6.03;;;17.50;99.90;;;;;;5027516;28;20033;-72
2021/07/21 05:50:00;;;;;;;11.00;5.80;;;17.50;99.90;;;;;;5023220;28;20042;-72
2021/07/21 05:52:25;;;;;;;10.95;5.78;;;17.60;99.90;;;;;;5026420;28;20151;-73
2021/07/21 05:54:51;;;;;;;11.27;5.95;;;17.60;99.90;;;;;;5025941;28;20488;-72
2021/07/21 05:57:16;;;;;;;9.60;5.57;;;17.70;99.90;;;;;;5027114;28;20049;-73
2021/07/21 05:59:42;;;;;;;14.00;5.90;;;17.80;99.90;;;;;;5021805;28;20033;-73
2021/07/21 06:02:08;;;;;;;8.82;6.03;;;17.80;99.90;;;;;;5024683;28;20025;-72
2021/07/21 06:04:33;;;;;;;10.20;6.38;;;17.80;99.90;;;;;;5022272;28;20621;-73
2021/07/21 06:07:00;;;;;;;9.70;5.97;;;17.90;99.90;;;;;;5021684;28;20129;-73
2021/07/21 06:09:25;;;;;;;10.48;5.72;;;18.00;99.90;;;;;;5030942;28;20033;-72
2021/07/21 06:11:51;;;;;;;11.15;6.30;;;18.00;99.90;;;;;;5028025;28;20507;-73
2021/07/21 06:14:17;;;;;;;11.00;5.50;;;18.00;99.90;;;;;;5029143;28;20025;-73
2021/07/21 06:16:42;;;;;;;9.63;5.05;;;18.10;99.90;;;;;;5030194;28;20107;-73
2021/07/21 06:19:08;;;;;;;12.68;5.40;;;18.10;99.90;;;;;;5022058;28;20420;-73
2021/07/21 06:21:34;;;;;;;15.48;5.38;;;18.10;99.90;;;;;;5032076;28;20171;-72
2021/07/21 06:23:59;;;;;;;12.23;5.78;;;18.20;99.90;;;;;;5029121;28;20034;-73
2021/07/21 06:26:25;;;;;;;8.07;5.40;;;18.20;99.90;;;;;;5028516;28;20029;-73
2021/07/21 06:28:50;;;;;;;10.20;5.88;;;18.20;99.90;;;;;;5031650;28;20159;-73
2021/07/21 06:31:16;;;;;;;10.38;4.97;;;18.20;99.90;;;;;;5025808;28;20030;-73
2021/07/21 06:33:42;;;;;;;12.02;5.53;;;18.30;99.90;;;;;;5029291;28;20030;-73
2021/07/21 06:36:08;;;;;;;10.80;5.22;;;18.30;99.90;;;;;;5023142;28;20384;-72
2021/07/21 06:38:33;;;;;;;10.60;5.22;;;18.40;99.90;;;;;;5027934;28;20109;-73
2021/07/21 06:40:59;;;;;;;8.30;5.00;;;18.50;99.90;;;;;;5031934;28;20036;-73
2021/07/21 06:43:25;;;;;;;7.22;4.70;;;18.50;99.90;;;;;;5025892;28;20386;-73
2021/07/21 06:45:50;;;;;;;9.02;5.18;;;18.60;99.90;;;;;;5028544;28;20039;-73
2021/07/21 06:48:16;;;;;;;9.98;5.28;;;18.60;99.90;;;;;;5027232;28;20480;-72
2021/07/21 06:50:42;;;;;;;8.90;5.05;;;18.70;99.90;;;;;;5032464;28;20022;-72
2021/07/21 06:53:07;;;;;;;6.82;4.60;;;18.80;99.90;;;;;;5032744;28;20029;-71
2021/07/21 06:55:33;;;;;;;8.27;4.60;;;18.90;99.90;;;;;;5022397;28;20050;-72
2021/07/21 06:57:59;;;;;;;8.93;4.45;;;18.90;99.90;;;;;;5027148;28;20042;-72
2021/07/21 07:00:25;;;;;;;11.25;4.78;;;19.00;99.90;;;;;;5029691;28;20029;-75
2021/07/21 07:02:51;;;;;;;7.85;4.57;;;19.10;99.90;;;;;;5025531;28;20057;-75
2021/07/21 07:05:17;;;;;;;8.57;4.90;;;19.10;99.90;;;;;;5027877;28;20052;-75
2021/07/21 07:07:43;;;;;;;8.88;4.93;;;19.10;99.90;;;;;;5032016;28;20184;-75
2021/07/21 07:10:09;;;;;;;7.00;4.60;;;19.10;99.90;;;;;;5029367;28;20551;-74
2021/07/21 07:12:34;;;;;;;7.57;4.22;;;19.10;99.90;;;;;;5026236;28;20033;-75
2021/07/21 07:15:00;;;;;;;8.05;4.60;;;19.30;99.90;;;;;;5027751;28;20033;-75
2021/07/21 07:17:27;;;;;;;11.23;5.18;;;19.40;99.90;;;;;;5021188;28;20071;-74
2021/07/21 07:19:53;;;;;;;7.47;4.53;;;19.50;99.90;;;;;;5019068;28;20042;-75
2021/07/21 07:22:18;;;;;;;8.75;4.68;;;19.50;99.90;;;;;;5026372;28;20083;-74
2021/07/21 07:24:44;;;;;;;6.35;4.28;;;19.50;99.90;;;;;;5030086;28;20056;-76
2021/07/21 07:27:12;;;;;;;7.28;4.50;;;19.60;99.90;;;;;;5015404;28;20033;-78
2021/07/21 07:29:38;;;;;;;9.55;4.80;;;19.60;99.90;;;;;;5030675;28;20087;-76
2021/07/21 07:32:04;;;;;;;7.07;4.22;;;19.70;99.90;;;;;;5026941;28;20033;-75
2021/07/21 07:34:29;;;;;;;7.18;4.68;;;19.70;99.90;;;;;;5026681;28;20025;-77
2021/07/21 07:36:55;;;;;;;6.97;4.57;;;19.70;99.90;;;;;;5026454;28;20030;-76
2021/07/21 07:39:21;;;;;;;6.97;4.40;;;19.80;99.90;;;;;;5017066;28;20074;-77
2021/07/21 07:41:47;;;;;;;7.72;4.72;;;19.80;99.90;;;;;;5024405;28;20080;-76
2021/07/21 07:44:13;;;;;;;7.30;4.50;;;19.80;99.90;;;;;;5023360;28;20496;-77
2021/07/21 07:46:39;;;;;;;6.15;4.40;;;19.90;99.90;;;;;;5025220;28;20026;-77
2021/07/21 07:49:06;;;;;;;6.03;3.83;;;20.10;99.90;;;;;;5023976;28;20063;-76
2021/07/21 07:51:33;;;;;;;7.07;4.22;;;20.20;99.90;;;;;;5027133;28;20037;-77
2021/07/21 07:53:59;;;;;;;7.82;4.90;;;20.30;98.50;;;;;;5027334;28;20447;-77
2021/07/21 07:56:25;;;;;;;6.78;4.20;;;20.40;96.50;;;;;;5024947;28;20030;-76
2021/07/21 07:58:51;;;;;;;6.53;4.05;;;20.40;96.80;;;;;;5018557;28;20034;-77
2021/07/21 08:01:17;;;;;;;8.75;4.70;;;20.50;98.00;;;;;;5027950;28;20052;-76
2021/07/21 08:03:42;;;;;;;7.10;4.60;;;20.60;98.10;;;;;;5026192;28;20095;-76
2021/07/21 08:06:08;;;;;;;7.07;3.75;;;20.70;96.70;;;;;;5016564;28;20378;-73
2021/07/21 08:08:34;;;;;;;9.15;4.30;;;20.70;94.50;;;;;;5018682;28;20037;-73
2021/07/21 08:11:00;;;;;;;8.10;4.53;;;20.70;94.90;;;;;;5025198;28;20029;-75
2021/07/21 08:13:26;;;;;;;6.90;4.30;;;20.80;95.60;;;;;;5024639;28;20029;-75
2021/07/21 08:15:51;;;;;;;6.80;4.20;;;20.80;94.10;;;;;;5022507;28;20028;-74
2021/07/21 08:18:17;;;;;;;5.53;3.28;;;21.00;93.00;;;;;;5025833;28;20030;-75
2021/07/21 08:20:43;;;;;;;7.30;4.03;;;21.00;92.30;;;;;;5030006;28;20087;-74
2021/07/21 08:23:10;;;;;;;6.90;3.80;;;21.00;91.40;;;;;;5022480;28;20026;-75
2021/07/21 08:25:35;;;;;;;8.63;3.92;;;21.00;91.00;;;;;;5026295;28;20081;-74
2021/07/21 08:28:01;;;;;;;5.13;3.38;;;21.10;90.50;;;;;;5023166;28;20045;-74
2021/07/21 08:30:27;;;;;;;5.45;3.75;;;21.10;90.60;;;;;;5027784;28;20454;-74
2021/07/21 08:32:54;;;;;;;5.78;3.38;;;21.10;90.00;;;;;;5028811;28;20029;-75
2021/07/21 08:35:23;;;;;;;4.07;3.13;;;21.10;91.70;;;;;;5025038;28;20061;-75
2021/07/21 08:37:48;;;;;;;7.75;3.72;;;21.10;89.70;;;;;;5027233;28;20031;-74
2021/07/21 08:40:16;;;;;;;4.88;3.00;;;21.20;89.70;;;;;;5022800;28;20116;-75
2021/07/21 08:42:42;;;;;;;5.85;3.58;;;21.20;90.60;;;;;;5025682;28;20033;-73
2021/07/21 08:45:09;;;;;;;4.68;3.25;;;21.20;90.50;;;;;;5024646;28;20057;-75
2021/07/21 08:47:35;;;;;;;8.07;3.53;;;21.20;90.30;;;;;;5023817;28;20505;-74
2021/07/21 08:50:03;;;;;;;5.10;3.20;;;21.10;89.90;;;;;;5024291;28;20113;-74
2021/07/21 08:52:30;;;;;;;6.43;3.85;;;21.10;90.60;;;;;;5027295;28;20041;-75
2021/07/21 08:54:58;;;;;;;4.50;3.67;;;21.00;92.40;;;;;;5025862;28;20400;-75
2021/07/21 08:57:25;;;;;;;6.15;4.10;;;21.00;91.00;;;;;;5026035;28;20036;-74
2021/07/21 08:59:52;;;;;;;7.43;4.40;;;21.00;91.20;;;;;;5021522;28;20029;-74
2021/07/21 09:02:17;;;;;;;8.00;4.97;;;21.00;91.30;;;;;;5024211;28;20033;-74
2021/07/21 09:04:43;;;;;;;4.93;4.10;;;21.10;91.30;;;;;;5024655;28;20063;-76
2021/07/21 09:07:09;;;;;;;6.95;4.38;;;21.10;90.60;;;;;;5024705;28;20037;-74
2021/07/21 09:10:07;;;;;;;5.95;3.63;;;21.10;89.40;;;;;;5022612;28;20022;-75
2021/07/21 09:12:33;;;;;;;5.55;3.88;;;21.20;88.50;;;;;;5023520;28;20443;-76
2021/07/21 09:14:59;;;;;;;4.20;3.30;;;21.40;88.20;;;;;;5022133;28;20476;-76
2021/07/21 09:17:26;;;;;;;3.75;2.90;;;21.50;85.20;;;;;;5026570;28;20063;-74
2021/07/21 09:19:52;;;;;;;3.25;2.13;;;21.50;84.60;;;;;;5028528;28;20044;-72
2021/07/21 09:22:26;;;;;;;3.65;2.88;;;21.60;79.90;;;;;;5023117;28;20030;-85
2021/07/21 09:25:15;;;;;;;5.95;2.78;;;21.70;79.30;;;;;;5018269;28;20144;-74
2021/07/21 09:27:43;;;;;;;4.40;3.28;;;21.80;79.00;;;;;;5025064;28;20558;-74
2021/07/21 09:30:10;;;;;;;4.25;2.90;;;21.90;82.60;;;;;;5024375;28;20476;-75
2021/07/21 09:33:06;;;;;;;5.00;2.88;;;22.00;78.90;;;;;;5023880;28;20179;-75
2021/07/21 09:35:41;;;;;;;8.65;3.15;;;22.10;79.20;;;;;;5014178;28;20481;-73
2021/07/21 09:38:18;;;;;;;6.78;3.33;;;22.10;78.70;;;;;;5021545;28;20396;-74
2021/07/21 09:40:53;;;;;;;4.55;3.53;;;22.10;82.70;;;;;;5028212;28;20040;-72
2021/07/21 09:43:22;;;;;;;4.43;3.47;;;22.10;81.90;;;;;;5025768;28;20033;-73
2021/07/21 09:45:48;;;;;;;4.88;3.25;;;22.20;80.40;;;;;;5028668;28;20511;-72
2021/07/21 09:48:14;;;;;;;5.03;3.17;;;22.20;80.10;;;;;;5022021;28;20041;-72
2021/07/21 09:50:42;;;;;;;3.78;2.75;;;22.30;79.00;;;;;;5019422;28;20025;-72
2021/07/21 09:53:12;;;;;;;5.57;3.10;;;22.40;76.70;;;;;;5022170;28;20034;-76
2021/07/21 09:55:43;;;;;;;3.33;2.20;;;22.50;77.10;;;;;;5016617;28;20381;-75
2021/07/21 09:58:23;;;;;;;7.63;2.60;;;22.40;68.20;;;;;;5019907;28;20026;-75
2021/07/21 10:00:49;;;;;;;3.03;2.17;;;22.30;68.30;;;;;;5016433;28;20057;-75
2021/07/21 10:03:22;;;;;;;3.92;2.40;;;22.20;68.00;;;;;;5017824;28;20341;-75
2021/07/21 10:06:10;;;;;;;4.18;2.25;;;22.00;68.60;;;;;;5021947;28;20026;-75
2021/07/21 10:08:44;;;;;;;3.10;2.22;;;22.00;68.80;;;;;;5020345;28;20095;-75
2021/07/21 10:11:25;;;;;;;3.53;2.55;;;22.00;71.90;;;;;;5021780;28;20018;-75
2021/07/21 10:13:55;;;;;;;2.75;2.08;;;22.20;74.40;;;;;;5024199;28;20101;-75
2021/07/21 10:16:40;;;;;;;5.00;1.80;;;22.40;69.00;;;;;;5024842;28;20029;-75
2021/07/21 10:19:09;;;;;;;5.68;2.05;;;22.30;67.60;;;;;;5022389;28;20022;-75
2021/07/21 10:21:36;;;;;;;1.95;1.70;;;22.20;67.30;;;;;;5023317;28;20030;-76
2021/07/21 10:24:02;;;;;;;2.22;1.80;;;22.20;66.20;;;;;;5024927;28;20029;-76
2021/07/21 10:26:28;;;;;;;4.43;1.98;;;22.30;68.50;;;;;;5022393;28;20030;-76
2021/07/21 10:28:58;;;;;;;3.72;2.38;;;22.50;72.40;;;;;;5025328;28;20086;-76
2021/07/21 10:31:25;;;;;;;3.72;2.05;;;22.90;71.30;;;;;;5026145;28;20025;-76
2021/07/21 10:33:51;;;;;;;3.40;2.10;;;23.10;66.80;;;;;;5024216;28;20032;-76
2021/07/21 10:36:18;;;;;;;2.58;2.03;;;23.10;66.20;;;;;;5017303;28;20030;-76
2021/07/21 10:38:44;;;;;;;3.10;2.30;;;22.90;66.10;;;;;;5017975;28;20161;-76
2021/07/21 10:41:10;;;;;;;3.08;2.20;;;22.70;67.40;;;;;;5021512;28;20120;-76
2021/07/21 10:43:35;;;;;;;2.30;1.70;;;22.50;66.70;;;;;;5020449;28;20029;-76
2021/07/21 10:46:02;;;;;;;2.47;1.85;;;22.40;67.80;;;;;;5016177;28;20030;-75
2021/07/21 10:48:45;;;;;;;4.43;2.10;;;22.30;67.40;;;;;;5022498;28;20388;-76
2021/07/21 10:51:34;;;;;;;2.20;1.70;;;22.40;69.90;;;;;;5019092;28;20026;-75
2021/07/21 10:54:14;;;;;;;2.95;2.15;;;22.50;65.90;;;;;;5021488;28;20022;-75
2021/07/21 10:59:24;;;;;;;3.28;2.00;;;23.20;66.30;;;;;;5017550;28;20530;-75
2021/07/21 11:02:00;;;;;;;4.15;2.10;;;23.40;66.40;;;;;;5027238;28;20017;-75
2021/07/21 11:04:43;;;;;;;2.42;2.10;;;23.60;67.30;;;;;;5026037;28;20124;-76
2021/07/21 11:07:08;;;;;;;3.33;2.42;;;23.70;64.90;;;;;;5025273;28;20077;-76
2021/07/21 11:09:38;;;;;;;3.00;2.38;;;24.00;66.40;;;;;;5024746;28;20049;-76
2021/07/21 11:12:04;;;;;;;3.22;1.92;;;24.30;68.50;;;;;;5017921;28;20032;-76
2021/07/21 11:14:35;;;;;;;3.17;2.05;;;24.40;60.60;;;;;;5023844;28;20493;-78
2021/07/21 11:17:06;;;;;;;3.58;2.10;;;24.20;61.70;;;;;;5021801;28;20040;-77
2021/07/21 11:19:35;;;;;;;;;;;24.00;63.70;;;;;;5031918;28;20500;-77
2021/07/21 11:22:24;;;;;;;4.63;2.08;;;23.80;64.00;;;;;;5027862;28;20291;-77
2021/07/21 11:25:08;;;;;;;4.25;2.10;;;23.50;65.20;;;;;;5028404;28;20029;-77
2021/07/21 11:27:42;;;;;;;3.42;2.28;;;23.40;67.20;;;;;;5026883;28;20408;-77
2021/07/21 11:30:47;;;;;;;2.80;2.20;;;23.20;67.20;;;;;;5020238;28;20032;-77
2021/07/21 11:33:55;;;;;;;3.30;2.15;;;23.10;66.30;;;;;;5017162;28;20088;-78
2021/07/21 11:36:39;;;;;;;3.80;2.40;;;23.00;66.30;;;;;;5028977;28;20036;-77
2021/07/21 11:39:07;;;;;;;3.40;2.15;;;23.00;70.70;;;;;;5021131;28;20022;-76
2021/07/21 11:41:45;;;;;;;3.33;2.13;;;23.00;67.10;;;;;;5026687;28;20206;-74
2021/07/21 11:44:19;;;;;;;3.47;2.08;;;23.00;68.50;;;;;;5023179;28;20494;-73
2021/07/21 11:46:44;;;;;;;3.47;2.20;;;22.90;65.70;;;;;;5023615;28;20029;-73
2021/07/21 11:49:59;;;;;;;3.15;2.38;;;22.80;67.30;;;;;;5025416;28;20489;-74
2021/07/21 11:52:24;;;;;;;4.50;2.67;;;22.70;68.50;;;;;;5013304;28;20627;-74
2021/07/21 11:54:51;;;;;;;3.30;2.10;;;22.70;69.10;;;;;;5024034;28;20030;-70
2021/07/21 11:57:17;;;;;;;3.92;2.35;;;22.60;72.50;;;;;;5010371;28;20406;-73
2021/07/21 11:59:46;;;;;;;3.75;2.30;;;22.60;71.10;;;;;;5017691;28;20266;-73
2021/07/21 12:02:17;;;;;;;3.72;2.47;;;22.60;69.50;;;;;;5021465;28;20037;-74
2021/07/21 12:04:47;;;;;;;;;;;22.60;69.90;;;;;;5021289;28;20030;-73
2021/07/21 12:07:14;;;;;;;2.65;1.80;;;22.50;70.10;;;;;;5025241;28;19921;-74
2021/07/21 12:09:42;;;;;;;4.13;2.00;;;22.50;69.70;;;;;;5029654;28;20105;-73
2021/07/21 12:12:10;;;;;;;5.43;2.30;;;22.60;68.40;;;;;;5029013;28;20026;-74
2021/07/21 12:14:36;;;;;;;3.63;2.13;;;22.60;69.80;;;;;;5025145;28;20119;-73
2021/07/21 12:17:13;;;;;;;5.88;2.00;;;22.60;70.00;;;;;;5023833;28;20032;-73
2021/07/21 12:19:42;;;;;;;4.95;2.63;;;22.50;71.60;;;;;;5016278;28;20033;-73
2021/07/21 12:22:10;;;;;;;3.83;2.17;;;22.50;71.70;;;;;;5028221;28;20079;-74
2021/07/21 12:24:37;;;;;;;5.68;2.42;;;22.50;74.90;;;;;;5023204;28;20117;-74
2021/07/21 12:27:04;;;;;;;3.33;2.00;;;22.60;71.60;;;;;;5027066;28;20357;-73
2021/07/21 12:29:31;;;;;;;5.63;2.22;;;22.70;71.20;;;;;;5021530;28;20421;-73
2021/07/21 12:32:12;;;;;;;7.47;2.00;;;22.70;70.90;;;;;;5015646;28;20022;-73
2021/07/21 12:34:43;;;;;;;7.03;2.17;;;22.70;71.00;;;;;;5028882;28;20033;-74
2021/07/21 12:37:14;;;;;;;4.57;2.40;;;22.70;72.50;;;;;;5019120;28;20499;-74
2021/07/21 12:39:42;;;;;;;3.50;2.25;;;22.70;74.30;;;;;;5025963;28;20048;-73
2021/07/21 12:42:32;;;;;;;4.68;2.40;;;22.70;71.00;;;;;;5017431;28;20144;-74
2021/07/21 12:45:09;;;;;;;9.98;2.88;;;22.60;71.90;;;;;;5024717;28;20045;-73
2021/07/21 12:47:37;;;;;;;4.05;2.75;;;22.60;72.30;;;;;;5019394;28;20030;-74
2021/07/21 12:50:17;;;;;;;2.88;2.20;;;22.70;72.60;;;;;;5016667;28;20018;-73
2021/07/21 12:52:48;;;;;;;3.80;2.40;;;22.90;72.70;;;;;;5017191;28;20037;-74
2021/07/21 12:55:29;;;;;;;4.13;2.60;;;23.00;72.50;;;;;;5022538;28;20026;-73
2021/07/21 12:57:58;;;;;;;4.38;2.60;;;23.10;77.90;;;;;;5025342;28;20037;-72